Time;durP1;ratioP1;P1;durP2;ratioP2;P2;SDS_P1;SDS_P2;PMS_P1;PMS_P2;Temp;Humidity;BMP_temperature;BMP_pressure;BME280_temperature;BME280_humidity;BME280_pressure;Samples;Min_cycle;Max_cycle;Signal;HPM_P1;HPM_P2
2022/06/12 00:01:19;;;;;;;;;2.00;1.00;;;;;;;;5017715;28;45308;-69
2022/06/12 00:03:45;;;;;;;;;6.33;2.33;;;;;;;;5019738;28;45570;-69
2022/06/12 00:06:10;;;;;;;;;2.67;1.00;;;;;;;;5015606;28;45403;-69
2022/06/12 00:08:37;;;;;;;;;2.00;2.00;;;;;;;;5017283;28;45349;-69
2022/06/12 00:11:04;;;;;;;;;4.00;2.67;;;;;;;;5016395;28;45760;-69
2022/06/12 00:13:31;;;;;;;;;2.00;2.00;;;;;;;;5018313;28;45445;-69
2022/06/12 00:15:56;;;;;;;;;4.00;2.00;;;;;;;;5017207;28;46066;-69
2022/06/12 00:18:22;;;;;;;;;4.67;4.67;;;;;;;;5017702;28;45379;-68
2022/06/12 00:20:47;;;;;;;;;6.00;6.00;;;;;;;;5017495;28;45266;-69
2022/06/12 00:23:14;;;;;;;;;9.33;6.33;;;;;;;;5014767;28;45310;-69
2022/06/12 00:25:39;;;;;;;;;10.00;8.00;;;;;;;;5017331;28;45258;-69
2022/06/12 00:28:05;;;;;;;;;13.33;10.33;;;;;;;;5014731;28;45179;-69
2022/06/12 00:30:31;;;;;;;;;14.00;11.00;;;;;;;;5018156;28;45510;-69
2022/06/12 00:32:56;;;;;;;;;14.67;13.67;;;;;;;;5014059;28;45408;-69
2022/06/12 00:35:30;;;;;;;;;18.67;15.00;;;;;;;;5017438;28;46222;-69
2022/06/12 00:37:56;;;;;;;;;16.33;14.33;;;;;;;;5014862;28;45356;-69
2022/06/12 00:40:21;;;;;;;;;13.67;11.67;;;;;;;;5019335;28;45572;-69
2022/06/12 00:42:49;;;;;;;;;9.33;9.00;;;;;;;;5015149;28;45287;-69
2022/06/12 00:45:33;;;;;;;;;11.67;10.33;;;;;;;;5019234;28;46213;-69
2022/06/12 00:47:59;;;;;;;;;8.67;6.00;;;;;;;;5017139;28;45333;-69
2022/06/12 00:50:24;;;;;;;;;8.00;7.00;;;;;;;;5018403;28;45539;-69
2022/06/12 00:52:52;;;;;;;;;8.00;5.33;;;;;;;;5018118;28;45354;-69
2022/06/12 00:55:24;;;;;;;;;7.67;6.33;;;;;;;;5019142;28;45293;-69
2022/06/12 00:57:50;;;;;;;;;7.00;4.00;;;;;;;;5017549;28;45440;-69
2022/06/12 01:00:15;;;;;;;;;5.67;5.67;;;;;;;;5018941;28;45332;-69
2022/06/12 01:02:41;;;;;;;;;4.00;4.00;;;;;;;;5017015;28;45379;-69
2022/06/12 01:07:53;;;;;;;;;5.00;3.00;;;;;;;;5014019;28;45323;-68
2022/06/12 01:10:19;;;;;;;;;5.00;5.00;;;;;;;;5018897;28;45305;-69
2022/06/12 01:12:48;;;;;;;;;5.00;5.00;;;;;;;;5012281;28;45158;-69
2022/06/12 01:15:16;;;;;;;;;3.67;3.00;;;;;;;;5017236;28;47283;-69
2022/06/12 01:17:43;;;;;;;;;8.67;3.33;;;;;;;;5012352;28;45521;-68
2022/06/12 01:20:10;;;;;;;;;3.00;3.00;;;;;;;;5030982;28;45480;-69
2022/06/12 01:22:54;;;;;;;;;3.67;2.00;;;;;;;;5014777;28;45413;-69
2022/06/12 01:25:28;;;;;;;;;5.33;2.00;;;;;;;;5021954;28;45346;-68
2022/06/12 01:28:12;;;;;;;;;4.00;3.00;;;;;;;;5013035;28;45467;-68
2022/06/12 01:30:47;;;;;;;;;5.00;4.00;;;;;;;;5019224;28;45273;-68
2022/06/12 01:33:19;;;;;;;;;2.00;2.00;;;;;;;;5017624;28;45411;-68
2022/06/12 01:35:47;;;;;;;;;4.67;2.67;;;;;;;;5018515;28;46449;-68
2022/06/12 01:38:29;;;;;;;;;5.67;3.33;;;;;;;;5019363;28;45470;-68
2022/06/12 01:40:59;;;;;;;;;4.67;3.00;;;;;;;;5020171;28;45501;-68
2022/06/12 01:43:27;;;;;;;;;6.33;3.00;;;;;;;;5018411;28;45674;-68
2022/06/12 01:45:58;;;;;;;;;4.33;3.00;;;;;;;;5017943;28;47248;-68
2022/06/12 01:48:39;;;;;;;;;3.00;2.00;;;;;;;;5019423;28;45424;-68
2022/06/12 01:51:04;;;;;;;;;3.00;3.00;;;;;;;;5017433;28;45393;-68
2022/06/12 01:53:29;;;;;;;;;4.00;3.00;;;;;;;;5019897;28;45570;-68
2022/06/12 01:55:59;;;;;;;;;6.00;2.67;;;;;;;;5019673;28;45272;-69
2022/06/12 01:58:30;;;;;;;;;5.00;4.00;;;;;;;;5020741;28;45352;-69
2022/06/12 02:01:02;;;;;;;;;3.00;2.00;;;;;;;;5019204;28;45458;-68
2022/06/12 02:03:28;;;;;;;;;2.33;1.33;;;;;;;;5014321;28;45336;-69
2022/06/12 02:05:59;;;;;;;;;5.33;2.33;;;;;;;;5019912;28;45415;-68
2022/06/12 02:08:27;;;;;;;;;6.67;4.00;;;;;;;;5014399;28;45308;-69
2022/06/12 02:10:56;;;;;;;;;3.33;1.00;;;;;;;;5018185;28;45299;-68
2022/06/12 02:13:32;;;;;;;;;5.33;3.00;;;;;;;;5017336;28;45411;-69
2022/06/12 02:16:04;;;;;;;;;5.00;3.00;;;;;;;;5017232;28;47468;-68
2022/06/12 02:18:34;;;;;;;;;3.00;2.67;;;;;;;;5018390;28;45369;-68
2022/06/12 02:21:37;;;;;;;;;4.33;3.00;;;;;;;;5005785;28;45325;-68
2022/06/12 02:24:14;;;;;;;;;2.00;2.00;;;;;;;;5002306;28;46029;-68
2022/06/12 02:26:48;;;;;;;;;3.00;3.00;;;;;;;;5015836;28;46147;-68
2022/06/12 02:29:17;;;;;;;;;3.00;2.00;;;;;;;;5021061;28;45401;-68
2022/06/12 02:31:45;;;;;;;;;5.00;3.00;;;;;;;;5016144;28;45500;-68
2022/06/12 02:34:13;;;;;;;;;4.33;2.33;;;;;;;;5020925;28;45479;-68
2022/06/12 02:36:41;;;;;;;;;3.00;3.00;;;;;;;;5015474;28;45426;-68
2022/06/12 02:39:13;;;;;;;;;2.67;2.67;;;;;;;;5021039;28;45388;-68
2022/06/12 02:41:46;;;;;;;;;4.67;3.00;;;;;;;;5019295;28;45590;-68
2022/06/12 02:44:15;;;;;;;;;2.33;2.00;;;;;;;;5021009;28;45272;-68
2022/06/12 02:46:44;;;;;;;;;4.67;3.00;;;;;;;;5018819;28;46354;-68
2022/06/12 02:49:09;;;;;;;;;3.33;2.00;;;;;;;;5020838;28;45367;-68
2022/06/12 02:51:40;;;;;;;;;4.67;2.00;;;;;;;;5018588;28;45414;-69
2022/06/12 02:54:05;;;;;;;;;3.00;3.00;;;;;;;;5019556;28;46129;-68
2022/06/12 02:56:35;;;;;;;;;2.00;1.00;;;;;;;;5018563;28;46259;-68
2022/06/12 02:59:07;;;;;;;;;3.33;3.00;;;;;;;;5019620;28;45465;-68
2022/06/12 03:01:37;;;;;;;;;2.00;2.00;;;;;;;;5018684;28;45451;-69
2022/06/12 03:04:10;;;;;;;;;6.00;3.00;;;;;;;;5020509;28;45521;-68
2022/06/12 03:06:37;;;;;;;;;2.00;2.00;;;;;;;;5017423;28;47527;-68
2022/06/12 03:09:02;;;;;;;;;3.67;2.00;;;;;;;;5020661;28;45426;-68
2022/06/12 03:11:36;;;;;;;;;2.33;2.33;;;;;;;;5017108;28;45158;-68
2022/06/12 03:14:04;;;;;;;;;4.33;3.00;;;;;;;;5020673;28;45185;-68
2022/06/12 03:16:30;;;;;;;;;2.00;2.00;;;;;;;;5018266;28;47069;-69
2022/06/12 03:19:03;;;;;;;;;3.33;2.33;;;;;;;;5020034;28;45245;-69
2022/06/12 03:21:49;;;;;;;;;3.67;2.00;;;;;;;;5014165;28;45317;-69
2022/06/12 03:24:14;;;;;;;;;5.00;3.33;;;;;;;;5008113;28;45298;-69
2022/06/12 03:26:44;;;;;;;;;2.00;2.00;;;;;;;;5017223;28;45297;-68
2022/06/12 03:29:18;;;;;;;;;3.00;1.67;;;;;;;;5014057;28;45328;-69
2022/06/12 03:31:58;;;;;;;;;6.00;3.00;;;;;;;;5014031;28;45778;-69
2022/06/12 03:34:28;;;;;;;;;4.67;3.00;;;;;;;;5014409;28;47344;-68
2022/06/12 03:36:57;;;;;;;;;3.67;2.33;;;;;;;;5014663;28;45498;-68
2022/06/12 03:39:33;;;;;;;;;2.67;2.67;;;;;;;;5014278;28;45395;-69
2022/06/12 03:42:25;;;;;;;;;3.00;2.67;;;;;;;;5018250;28;45555;-68
2022/06/12 03:44:56;;;;;;;;;5.33;2.67;;;;;;;;5016206;28;45377;-68
2022/06/12 03:47:29;;;;;;;;;5.00;2.33;;;;;;;;5017092;28;45364;-68
2022/06/12 03:49:54;;;;;;;;;4.67;3.00;;;;;;;;5018817;28;45267;-68
2022/06/12 03:52:31;;;;;;;;;2.33;2.33;;;;;;;;5012429;28;45172;-68
2022/06/12 03:55:12;;;;;;;;;3.00;3.00;;;;;;;;5019821;28;45375;-68
2022/06/12 03:57:51;;;;;;;;;4.00;3.00;;;;;;;;5010334;28;46267;-68
2022/06/12 04:00:19;;;;;;;;;3.00;3.00;;;;;;;;5019582;28;45451;-68
2022/06/12 04:02:46;;;;;;;;;3.00;3.00;;;;;;;;5013285;28;45512;-68
2022/06/12 04:05:18;;;;;;;;;5.00;3.00;;;;;;;;5013216;28;45415;-68
2022/06/12 04:07:45;;;;;;;;;2.00;2.00;;;;;;;;5012685;28;45463;-68
2022/06/12 04:10:14;;;;;;;;;3.00;3.00;;;;;;;;5019738;28;45314;-68
2022/06/12 04:12:39;;;;;;;;;2.33;2.33;;;;;;;;5013283;28;45350;-68
2022/06/12 04:15:14;;;;;;;;;4.67;3.67;;;;;;;;5018236;28;45960;-69
2022/06/12 04:17:39;;;;;;;;;4.67;2.00;;;;;;;;5012984;28;45472;-69
2022/06/12 04:20:05;;;;;;;;;2.00;2.00;;;;;;;;5018266;28;45252;-69
2022/06/12 04:22:41;;;;;;;;;4.00;3.00;;;;;;;;5013146;28;45261;-70
2022/06/12 04:25:27;;;;;;;;;4.00;3.00;;;;;;;;5014944;28;45490;-68
2022/06/12 04:27:52;;;;;;;;;5.33;3.00;;;;;;;;5015270;28;45555;-68
2022/06/12 04:30:21;;;;;;;;;4.00;4.00;;;;;;;;5018953;28;45340;-68
2022/06/12 04:32:47;;;;;;;;;3.33;2.67;;;;;;;;5014173;28;45387;-68
2022/06/12 04:35:12;;;;;;;;;8.00;2.00;;;;;;;;5016963;28;45439;-68
2022/06/12 04:37:37;;;;;;;;;3.67;3.00;;;;;;;;5016859;28;48439;-69
2022/06/12 04:40:07;;;;;;;;;3.33;2.00;;;;;;;;5019344;28;45414;-69
2022/06/12 04:42:32;;;;;;;;;7.67;3.33;;;;;;;;5015932;28;45355;-68
2022/06/12 04:45:03;;;;;;;;;2.67;2.00;;;;;;;;5017726;28;45495;-68
2022/06/12 04:47:29;;;;;;;;;5.00;3.67;;;;;;;;5016849;28;46330;-68
2022/06/12 04:49:55;;;;;;;;;4.00;4.00;;;;;;;;5018758;28;45323;-69
2022/06/12 04:52:22;;;;;;;;;4.33;2.67;;;;;;;;5009714;28;45333;-68
2022/06/12 04:54:47;;;;;;;;;4.67;3.00;;;;;;;;5013040;28;45799;-68
2022/06/12 04:57:14;;;;;;;;;4.33;2.67;;;;;;;;5011904;28;45463;-68
2022/06/12 04:59:40;;;;;;;;;5.67;4.00;;;;;;;;5017882;28;45334;-68
2022/06/12 05:02:05;;;;;;;;;5.00;4.33;;;;;;;;5015972;28;45272;-68
2022/06/12 05:04:32;;;;;;;;;3.00;3.00;;;;;;;;5018723;28;45285;-68
2022/06/12 05:06:57;;;;;;;;;6.00;3.00;;;;;;;;5014680;28;46018;-68
2022/06/12 05:09:24;;;;;;;;;6.00;3.00;;;;;;;;5018740;28;45250;-69
2022/06/12 05:11:49;;;;;;;;;6.00;4.00;;;;;;;;5011255;28;45393;-70
2022/06/12 05:14:14;;;;;;;;;4.00;3.00;;;;;;;;5010832;28;46196;-70
2022/06/12 05:16:42;;;;;;;;;7.00;3.00;;;;;;;;5009117;28;45791;-68
2022/06/12 05:19:09;;;;;;;;;4.00;3.33;;;;;;;;5016262;28;45565;-69
2022/06/12 05:21:35;;;;;;;;;3.00;3.00;;;;;;;;5009956;28;45566;-69
2022/06/12 05:24:00;;;;;;;;;4.33;3.00;;;;;;;;5016052;28;45431;-69
2022/06/12 05:26:26;;;;;;;;;5.00;4.67;;;;;;;;5010367;28;45620;-69
2022/06/12 05:28:51;;;;;;;;;4.00;4.00;;;;;;;;5016805;28;45443;-69
2022/06/12 05:31:17;;;;;;;;;6.00;4.33;;;;;;;;5013460;28;45685;-69
2022/06/12 05:33:43;;;;;;;;;5.33;4.00;;;;;;;;5017633;28;45182;-69
2022/06/12 05:36:10;;;;;;;;;6.00;3.67;;;;;;;;5016295;28;47329;-69
2022/06/12 05:38:35;;;;;;;;;4.00;4.00;;;;;;;;5018086;28;45277;-69
2022/06/12 05:41:01;;;;;;;;;4.00;3.00;;;;;;;;5007357;28;45215;-69
2022/06/12 05:43:26;;;;;;;;;7.00;3.67;;;;;;;;5017066;28;45227;-69
2022/06/12 05:45:51;;;;;;;;;8.00;5.00;;;;;;;;5015182;28;46250;-69
2022/06/12 05:48:18;;;;;;;;;4.33;2.67;;;;;;;;5016731;28;45489;-69
2022/06/12 05:51:10;;;;;;;;;5.67;3.00;;;;;;;;5015287;28;45348;-69
2022/06/12 05:53:38;;;;;;;;;7.00;4.00;;;;;;;;5014362;28;45496;-70
2022/06/12 05:56:07;;;;;;;;;5.67;5.00;;;;;;;;5015965;28;45319;-69
2022/06/12 05:58:34;;;;;;;;;1.00;1.00;;;;;;;;5010030;28;45296;-69
2022/06/12 06:01:00;;;;;;;;;5.67;2.00;;;;;;;;5016348;28;45392;-69
2022/06/12 06:03:25;;;;;;;;;5.33;4.00;;;;;;;;5010644;28;45443;-69
2022/06/12 06:05:50;;;;;;;;;6.67;4.00;;;;;;;;5016775;28;45202;-69
2022/06/12 06:08:16;;;;;;;;;5.67;4.00;;;;;;;;5020102;28;45608;-69
2022/06/12 06:10:41;;;;;;;;;5.00;2.33;;;;;;;;5019952;28;45601;-69
2022/06/12 06:13:07;;;;;;;;;3.00;2.00;;;;;;;;5020454;28;46417;-69
2022/06/12 06:15:32;;;;;;;;;5.00;2.00;;;;;;;;5020894;28;46135;-69
2022/06/12 06:17:57;;;;;;;;;4.00;4.00;;;;;;;;5019218;28;45285;-68
2022/06/12 06:20:24;;;;;;;;;2.67;2.67;;;;;;;;5020766;28;45235;-69
2022/06/12 06:22:50;;;;;;;;;4.33;3.00;;;;;;;;5019861;28;46996;-69
2022/06/12 06:25:16;;;;;;;;;6.67;2.00;;;;;;;;5021159;28;46319;-69
2022/06/12 06:27:41;;;;;;;;;4.33;3.00;;;;;;;;5014945;28;45475;-69
2022/06/12 06:30:07;;;;;;;;;4.33;3.00;;;;;;;;5021561;28;45295;-69
2022/06/12 06:32:32;;;;;;;;;3.00;3.00;;;;;;;;5015051;28;45407;-69
2022/06/12 06:34:58;;;;;;;;;4.33;3.00;;;;;;;;5020856;28;46109;-69
2022/06/12 06:37:23;;;;;;;;;3.00;2.00;;;;;;;;5019456;28;45399;-69
2022/06/12 06:39:48;;;;;;;;;5.33;3.00;;;;;;;;5021320;28;45625;-68
2022/06/12 06:42:13;;;;;;;;;3.00;3.00;;;;;;;;5019359;28;45867;-69
2022/06/12 06:47:22;;;;;;;;;2.00;2.00;;;;;;;;5017042;28;45344;-68
2022/06/12 06:49:47;;;;;;;;;3.67;3.00;;;;;;;;5021573;28;45365;-69
2022/06/12 06:52:13;;;;;;;;;4.00;2.00;;;;;;;;5018904;28;45521;-68
2022/06/12 06:54:38;;;;;;;;;4.00;3.33;;;;;;;;5020763;28;45436;-69
2022/06/12 06:57:04;;;;;;;;;4.00;3.00;;;;;;;;5013805;28;45339;-68
2022/06/12 06:59:29;;;;;;;;;6.00;3.00;;;;;;;;5020863;28;45275;-69
2022/06/12 07:01:55;;;;;;;;;3.33;1.67;;;;;;;;5014915;28;45451;-68
2022/06/12 07:04:20;;;;;;;;;3.00;3.00;;;;;;;;5018809;28;45195;-68
2022/06/12 07:06:46;;;;;;;;;2.67;2.67;;;;;;;;5015199;28;45375;-68
2022/06/12 07:09:11;;;;;;;;;9.00;3.33;;;;;;;;5020564;28;45209;-69
2022/06/12 07:11:36;;;;;;;;;4.33;2.67;;;;;;;;5015117;28;45506;-68
2022/06/12 07:14:01;;;;;;;;;1.67;1.67;;;;;;;;5017091;28;45279;-69
2022/06/12 07:16:27;;;;;;;;;2.00;2.00;;;;;;;;5006496;28;45218;-69
2022/06/12 07:18:53;;;;;;;;;2.67;2.67;;;;;;;;5016515;28;45430;-69
2022/06/12 07:21:19;;;;;;;;;8.33;5.00;;;;;;;;5013965;28;45454;-69
2022/06/12 07:23:44;;;;;;;;;3.33;1.67;;;;;;;;5019967;28;45395;-69
2022/06/12 07:26:15;;;;;;;;;4.00;4.00;;;;;;;;5014881;28;45339;-69
2022/06/12 07:28:40;;;;;;;;;5.00;2.67;;;;;;;;5017834;28;45234;-69
2022/06/12 07:31:07;;;;;;;;;8.00;3.67;;;;;;;;5015754;28;45442;-70
2022/06/12 07:33:32;;;;;;;;;3.25;2.50;;;;;;;;5019804;28;45628;-69
2022/06/12 07:35:58;;;;;;;;;5.00;3.00;;;;;;;;5016517;28;45442;-69
2022/06/12 07:38:24;;;;;;;;;3.33;3.00;;;;;;;;5020006;28;45451;-69
2022/06/12 07:40:51;;;;;;;;;3.00;3.00;;;;;;;;5014327;28;45517;-70
2022/06/12 07:43:17;;;;;;;;;3.25;3.00;;;;;;;;5019704;28;45312;-69
2022/06/12 07:45:43;;;;;;;;;6.00;3.00;;;;;;;;5013157;28;45321;-70
2022/06/12 07:48:08;;;;;;;;;3.00;1.00;;;;;;;;5019542;28;45238;-69
2022/06/12 07:50:35;;;;;;;;;4.50;3.00;;;;;;;;5014070;28;45407;-69
2022/06/12 07:53:00;;;;;;;;;2.00;1.75;;;;;;;;5017769;28;45905;-69
2022/06/12 07:55:26;;;;;;;;;6.25;2.50;;;;;;;;5014162;28;45379;-70
2022/06/12 07:57:51;;;;;;;;;2.25;2.25;;;;;;;;5015750;28;45424;-69
2022/06/12 08:00:18;;;;;;;;;2.75;1.25;;;;;;;;5014084;28;45305;-69
2022/06/12 08:02:44;;;;;;;;;4.00;2.50;;;;;;;;5019209;28;45332;-68
2022/06/12 08:05:10;;;;;;;;;2.25;1.50;;;;;;;;5017429;28;45324;-69
2022/06/12 08:07:35;;;;;;;;;2.75;2.75;;;;;;;;5016858;28;45492;-69
2022/06/12 08:10:03;;;;;;;;;2.00;1.00;;;;;;;;5017339;28;45474;-69
2022/06/12 08:12:29;;;;;;;;;1.00;1.00;;;;;;;;5016723;28;46185;-69
2022/06/12 08:14:54;;;;;;;;;1.00;0.50;;;;;;;;5017361;28;45331;-69
2022/06/12 08:17:20;;;;;;;;;3.00;3.00;;;;;;;;5017893;28;45463;-69
2022/06/12 08:22:30;;;;;;;;;2.00;2.00;;;;;;;;5018777;28;45296;-69
2022/06/12 08:24:55;;;;;;;;;3.50;1.75;;;;;;;;5014630;28;45629;-69
2022/06/12 08:27:20;;;;;;;;;2.50;1.75;;;;;;;;5016000;28;45301;-69
2022/06/12 08:29:46;;;;;;;;;0.75;0.75;;;;;;;;5015277;28;45208;-69
2022/06/12 08:32:13;;;;;;;;;0.75;0.75;;;;;;;;5015342;28;46116;-70
2022/06/12 08:34:44;;;;;;;;;2.00;1.60;;;;;;;;5015240;28;45956;-69
2022/06/12 08:37:17;;;;;;;;;2.00;2.00;;;;;;;;5017853;28;45357;-68
2022/06/12 08:39:42;;;;;;;;;2.25;1.50;;;;;;;;5017138;28;45359;-69
2022/06/12 08:42:27;;;;;;;;;1.00;1.00;;;;;;;;5018431;28;45359;-69
2022/06/12 08:45:01;;;;;;;;;1.40;0.80;;;;;;;;5017268;28;45389;-68
2022/06/12 08:47:36;;;;;;;;;1.00;1.00;;;;;;;;5017801;28;45367;-69
2022/06/12 08:50:19;;;;;;;;;4.00;0.80;;;;;;;;5013923;28;45398;-69
2022/06/12 08:52:46;;;;;;;;;1.20;1.20;;;;;;;;5017421;28;46409;-68
2022/06/12 08:55:21;;;;;;;;;1.60;1.60;;;;;;;;5016524;28;45422;-68
2022/06/12 08:57:52;;;;;;;;;3.20;2.40;;;;;;;;5017219;28;46878;-68
2022/06/12 09:00:20;;;;;;;;;0.80;0.80;;;;;;;;5014287;28;45495;-68
2022/06/12 09:02:46;;;;;;;;;2.00;1.80;;;;;;;;5016178;28;46511;-69
2022/06/12 09:05:14;;;;;;;;;0.20;0.20;;;;;;;;5012309;28;45378;-69
2022/06/12 09:07:42;;;;;;;;;2.20;1.00;;;;;;;;5018605;28;45273;-69
2022/06/12 09:10:31;;;;;;;;;2.00;0.20;;;;;;;;5012397;28;45647;-68
2022/06/12 09:13:22;;;;;;;;;0.60;0.60;;;;;;;;5016051;28;45771;-69
2022/06/12 09:16:06;;;;;;;;;0.80;0.80;;;;;;;;5012746;28;45398;-69
2022/06/12 09:18:37;;;;;;;;;0.20;0.20;;;;;;;;5017779;28;45343;-68
2022/06/12 09:21:08;;;;;;;;;0.00;0.00;;;;;;;;5015147;28;45253;-70
2022/06/12 09:23:40;;;;;;;;;0.20;0.20;;;;;;;;5017050;28;45780;-68
2022/06/12 09:26:26;;;;;;;;;0.20;0.20;;;;;;;;5013782;28;45237;-67
2022/06/12 09:29:01;;;;;;;;;0.00;0.00;;;;;;;;5015636;28;45434;-68
2022/06/12 09:31:50;;;;;;;;;0.60;0.60;;;;;;;;5012386;28;45590;-68
2022/06/12 09:34:40;;;;;;;;;0.20;0.20;;;;;;;;5013601;28;45441;-68
2022/06/12 09:38:18;;;;;;;;;0.00;0.00;;;;;;;;5015990;28;45303;-67
2022/06/12 09:40:13;;;;;;;;;1.00;1.00;;;;;;;;5016238;28;45557;-68
2022/06/12 09:42:57;;;;;;;;;1.00;0.20;;;;;;;;5009797;28;46439;-68
2022/06/12 09:45:37;;;;;;;;;0.20;0.20;;;;;;;;5015836;28;45576;-69
2022/06/12 09:48:08;;;;;;;;;3.00;0.20;;;;;;;;5017366;28;45445;-68
2022/06/12 09:50:40;;;;;;;;;0.20;0.20;;;;;;;;5015191;28;45434;-68
2022/06/12 09:53:17;;;;;;;;;0.40;0.00;;;;;;;;5020049;28;45892;-68
2022/06/12 09:55:43;;;;;;;;;0.20;0.20;;;;;;;;5019985;28;47360;-68
2022/06/12 09:58:11;;;;;;;;;0.25;0.00;;;;;;;;5021456;28;45464;-67
2022/06/12 10:00:40;;;;;;;;;0.60;0.20;;;;;;;;5020255;28;45414;-70
2022/06/12 10:03:08;;;;;;;;;1.00;0.20;;;;;;;;5019254;28;45679;-69
2022/06/12 10:05:36;;;;;;;;;2.00;1.00;;;;;;;;5016590;28;46201;-69
2022/06/12 10:08:15;;;;;;;;;2.80;2.80;;;;;;;;5021347;28;45281;-70
2022/06/12 10:10:52;;;;;;;;;1.60;1.20;;;;;;;;5015974;28;45485;-69
2022/06/12 10:13:21;;;;;;;;;0.40;0.40;;;;;;;;5021328;28;45431;-69
2022/06/12 10:15:50;;;;;;;;;1.80;1.80;;;;;;;;5017527;28;45391;-68
2022/06/12 10:18:15;;;;;;;;;4.20;3.20;;;;;;;;5020795;28;45292;-69
2022/06/12 10:20:43;;;;;;;;;4.00;2.50;;;;;;;;5015801;28;45373;-69
2022/06/12 10:23:08;;;;;;;;;3.60;0.60;;;;;;;;5020973;28;45507;-69
2022/06/12 10:25:39;;;;;;;;;4.50;3.50;;;;;;;;5019170;28;46768;-68
2022/06/12 10:28:16;;;;;;;;;4.00;4.00;;;;;;;;5020977;28;45427;-68
2022/06/12 10:30:43;;;;;;;;;2.00;2.00;;;;;;;;5018010;28;45435;-69
2022/06/12 10:33:17;;;;;;;;;5.60;4.40;;;;;;;;5021025;28;45537;-68
2022/06/12 10:35:51;;;;;;;;;10.00;10.00;;;;;;;;5018606;28;45534;-69
2022/06/12 10:38:17;;;;;;;;;4.00;4.00;;;;;;;;5020911;28;45393;-68
2022/06/12 10:40:47;;;;;;;;;26.00;23.25;;;;;;;;5014429;28;45340;-69
2022/06/12 10:43:19;;;;;;;;;81.00;70.25;;;;;;;;5020453;28;45454;-69
2022/06/12 10:45:55;;;;;;;;;49.67;39.67;;;;;;;;5014348;28;45587;-68
2022/06/12 10:48:22;;;;;;;;;31.50;28.25;;;;;;;;5019757;28;45315;-69
2022/06/12 10:50:52;;;;;;;;;34.00;30.00;;;;;;;;5012380;28;45348;-69
2022/06/12 10:53:18;;;;;;;;;38.33;32.67;;;;;;;;5019339;28;45514;-68
2022/06/12 10:55:43;;;;;;;;;42.25;35.00;;;;;;;;5014365;28;45924;-69
2022/06/12 10:58:20;;;;;;;;;22.75;18.50;;;;;;;;5019342;28;45399;-68
2022/06/12 11:00:47;;;;;;;;;1.80;1.80;;;;;;;;5014391;28;45379;-69
2022/06/12 11:03:12;;;;;;;;;8.40;8.40;;;;;;;;5018825;28;46560;-68
2022/06/12 11:05:46;;;;;;;;;11.25;10.50;;;;;;;;5017846;28;45545;-68
2022/06/12 11:08:20;;;;;;;;;20.00;17.80;;;;;;;;5019050;28;45364;-68
2022/06/12 11:10:46;;;;;;;;;5.20;4.60;;;;;;;;5017711;28;45466;-67
2022/06/12 11:13:21;;;;;;;;;5.25;4.75;;;;;;;;5019106;28;45423;-67
2022/06/12 11:15:50;;;;;;;;;1.80;1.80;;;;;;;;5018507;28;48413;-68
2022/06/12 11:18:34;;;;;;;;;2.40;2.40;;;;;;;;5018854;28;45197;-68
2022/06/12 11:21:02;;;;;;;;;0.80;0.80;;;;;;;;5015933;28;45328;-68
2022/06/12 11:23:46;;;;;;;;;10.60;5.20;;;;;;;;5018079;28;45812;-67
2022/06/12 11:26:20;;;;;;;;;4.80;4.00;;;;;;;;5012273;28;45327;-67
2022/06/12 11:28:45;;;;;;;;;4.20;3.20;;;;;;;;5020098;28;45287;-67
2022/06/12 11:31:26;;;;;;;;;3.50;2.50;;;;;;;;5016029;28;45226;-67
2022/06/12 11:33:51;;;;;;;;;2.60;2.20;;;;;;;;5019196;28;45328;-67
2022/06/12 11:36:17;;;;;;;;;5.50;3.75;;;;;;;;5017877;28;46936;-67
2022/06/12 11:38:50;;;;;;;;;6.50;6.50;;;;;;;;5019944;28;45367;-67
2022/06/12 11:41:21;;;;;;;;;3.60;3.20;;;;;;;;5017669;28;45328;-67
2022/06/12 11:44:01;;;;;;;;;3.00;3.00;;;;;;;;5019853;28;45317;-69
2022/06/12 11:46:52;;;;;;;;;1.60;0.40;;;;;;;;5009133;28;45676;-68
2022/06/12 11:49:21;;;;;;;;;1.00;1.00;;;;;;;;5016972;28;45324;-68
2022/06/12 11:51:53;;;;;;;;;1.20;0.40;;;;;;;;5018085;28;45422;-68
2022/06/12 11:54:25;;;;;;;;;1.00;1.00;;;;;;;;5018071;28;45421;-68
2022/06/12 11:57:10;;;;;;;;;2.00;1.80;;;;;;;;5017412;28;46184;-68
2022/06/12 11:59:37;;;;;;;;;1.00;1.00;;;;;;;;5016957;28;45444;-68
2022/06/12 12:02:10;;;;;;;;;1.00;1.00;;;;;;;;5019316;28;45382;-69
2022/06/12 12:04:45;;;;;;;;;1.80;1.80;;;;;;;;5016368;28;45292;-67
2022/06/12 12:07:28;;;;;;;;;1.80;1.80;;;;;;;;5016216;28;45268;-68
2022/06/12 12:09:54;;;;;;;;;0.40;0.20;;;;;;;;5016543;28;45398;-68
2022/06/12 12:12:22;;;;;;;;;1.00;1.00;;;;;;;;5019205;28;45259;-68
2022/06/12 12:14:48;;;;;;;;;1.00;1.00;;;;;;;;5015452;28;46014;-68
2022/06/12 12:17:14;;;;;;;;;3.00;1.40;;;;;;;;5017864;28;46567;-67
2022/06/12 12:19:51;;;;;;;;;1.00;1.00;;;;;;;;5017108;28;45313;-68
2022/06/12 12:22:36;;;;;;;;;1.80;1.80;;;;;;;;5016672;28;45351;-68
2022/06/12 12:25:21;;;;;;;;;1.60;1.60;;;;;;;;5017146;28;46427;-68
2022/06/12 12:27:49;;;;;;;;;2.60;1.20;;;;;;;;5017014;28;48531;-68
2022/06/12 12:30:19;;;;;;;;;0.80;0.80;;;;;;;;5015113;28;45391;-68
2022/06/12 12:32:46;;;;;;;;;2.60;1.20;;;;;;;;5015759;28;45493;-68
2022/06/12 12:41:11;;;;;;;;;0.40;0.40;;;;;;;;5016044;28;45502;-68
2022/06/12 12:43:25;;;;;;;;;0.60;0.20;;;;;;;;5016743;28;45324;-68
2022/06/12 12:46:00;;;;;;;;;0.25;0.25;;;;;;;;5013859;28;45734;-68
2022/06/12 12:48:36;;;;;;;;;3.80;2.00;;;;;;;;5017905;28;46293;-68
2022/06/12 12:51:02;;;;;;;;;0.00;0.00;;;;;;;;5010710;28;45469;-69
2022/06/12 12:53:31;;;;;;;;;0.25;0.25;;;;;;;;5018553;28;45492;-68
2022/06/12 12:56:05;;;;;;;;;0.00;0.00;;;;;;;;5015169;28;45834;-69
2022/06/12 12:58:32;;;;;;;;;1.40;1.00;;;;;;;;5018696;28;45393;-68
2022/06/12 13:01:01;;;;;;;;;1.00;1.00;;;;;;;;5016236;28;45603;-68
2022/06/12 13:03:32;;;;;;;;;0.00;0.00;;;;;;;;5018602;28;45333;-69
2022/06/12 13:06:16;;;;;;;;;1.20;1.20;;;;;;;;5016064;28;45511;-69
2022/06/12 13:09:00;;;;;;;;;1.00;1.00;;;;;;;;5017060;28;45568;-69
2022/06/12 13:11:51;;;;;;;;;1.60;1.60;;;;;;;;5014994;28;45424;-69
2022/06/12 13:14:26;;;;;;;;;1.20;1.20;;;;;;;;5016753;28;45487;-69
2022/06/12 13:17:18;;;;;;;;;3.60;3.60;;;;;;;;5020093;28;45267;-69
2022/06/12 13:20:10;;;;;;;;;3.20;0.20;;;;;;;;5021001;28;46673;-69
2022/06/12 13:22:47;;;;;;;;;1.60;1.00;;;;;;;;5021077;28;45355;-69
2022/06/12 13:25:15;;;;;;;;;3.00;2.00;;;;;;;;5021180;28;45341;-69
2022/06/12 13:27:54;;;;;;;;;1.60;1.60;;;;;;;;5022672;28;45616;-69
2022/06/12 13:30:21;;;;;;;;;1.00;1.00;;;;;;;;5021685;28;46093;-69
2022/06/12 13:32:47;;;;;;;;;1.80;1.60;;;;;;;;5024108;28;45195;-69
2022/06/12 13:35:32;;;;;;;;;1.00;1.00;;;;;;;;5011558;28;45382;-69
2022/06/12 13:38:01;;;;;;;;;0.20;0.00;;;;;;;;5018703;28;45303;-69
2022/06/12 13:40:31;;;;;;;;;1.40;1.00;;;;;;;;5020888;28;46143;-69
2022/06/12 13:43:22;;;;;;;;;1.00;1.00;;;;;;;;5017587;28;45328;-69
2022/06/12 13:45:49;;;;;;;;;0.60;0.60;;;;;;;;5015856;28;45913;-69
2022/06/12 13:48:23;;;;;;;;;0.80;0.80;;;;;;;;5022814;28;45287;-68
2022/06/12 13:50:59;;;;;;;;;2.80;0.80;;;;;;;;5019455;28;46140;-68
2022/06/12 13:53:24;;;;;;;;;1.20;1.20;;;;;;;;5024641;28;45182;-67
2022/06/12 13:55:57;;;;;;;;;0.25;0.25;;;;;;;;5023052;28;45203;-67
2022/06/12 13:58:28;;;;;;;;;2.00;2.00;;;;;;;;5024572;28;45376;-68
2022/06/12 14:00:56;;;;;;;;;1.00;1.00;;;;;;;;5021251;28;48577;-69
2022/06/12 14:03:31;;;;;;;;;1.60;1.60;;;;;;;;5024350;28;45359;-68
2022/06/12 14:05:59;;;;;;;;;1.20;1.20;;;;;;;;5020321;28;45361;-69
2022/06/12 14:08:25;;;;;;;;;1.40;1.00;;;;;;;;5024449;28;45457;-69
2022/06/12 14:10:50;;;;;;;;;4.00;2.60;;;;;;;;5019362;28;46125;-69
2022/06/12 14:13:30;;;;;;;;;1.75;1.00;;;;;;;;5024567;28;46595;-70
2022/06/12 14:16:24;;;;;;;;;2.20;1.20;;;;;;;;5017511;28;45474;-69
2022/06/12 14:18:55;;;;;;;;;3.40;1.00;;;;;;;;5023341;28;45593;-69
2022/06/12 14:21:34;;;;;;;;;2.00;1.20;;;;;;;;5018268;28;46062;-69
2022/06/12 14:24:01;;;;;;;;;0.00;0.00;;;;;;;;5022989;28;45584;-69
2022/06/12 14:26:38;;;;;;;;;1.40;1.40;;;;;;;;5020050;28;46064;-69
2022/06/12 14:29:23;;;;;;;;;1.60;1.60;;;;;;;;5019119;28;45658;-70
2022/06/12 14:31:48;;;;;;;;;1.00;1.00;;;;;;;;5014775;28;48103;-69
2022/06/12 14:34:21;;;;;;;;;1.00;1.00;;;;;;;;5018558;28;45317;-69
2022/06/12 14:36:51;;;;;;;;;2.20;2.20;;;;;;;;5017833;28;45492;-69
2022/06/12 14:39:22;;;;;;;;;2.20;2.20;;;;;;;;5019730;28;45499;-69
2022/06/12 14:41:53;;;;;;;;;3.00;2.40;;;;;;;;5015508;28;46067;-69
2022/06/12 14:44:19;;;;;;;;;2.00;2.00;;;;;;;;5019625;28;45505;-69
2022/06/12 14:46:45;;;;;;;;;0.75;0.75;;;;;;;;5013031;28;45620;-69
2022/06/12 14:49:15;;;;;;;;;0.80;0.80;;;;;;;;5018318;28;45950;-69
2022/06/12 14:51:40;;;;;;;;;2.00;2.00;;;;;;;;5014509;28;46843;-70
2022/06/12 14:54:05;;;;;;;;;1.75;1.75;;;;;;;;5020614;28;45367;-69
2022/06/12 14:56:31;;;;;;;;;2.00;2.00;;;;;;;;5016134;28;45560;-69
2022/06/12 14:58:57;;;;;;;;;1.00;1.00;;;;;;;;5020610;28;45304;-69
2022/06/12 15:01:22;;;;;;;;;1.25;1.25;;;;;;;;5015689;28;45435;-69
2022/06/12 15:03:48;;;;;;;;;0.75;0.75;;;;;;;;5020232;28;45305;-68
2022/06/12 15:06:14;;;;;;;;;2.00;1.60;;;;;;;;5015878;28;45465;-69
2022/06/12 15:08:40;;;;;;;;;1.50;1.50;;;;;;;;5020106;28;45379;-69
2022/06/12 15:11:20;;;;;;;;;2.00;2.00;;;;;;;;5014304;28;45532;-68
2022/06/12 15:13:47;;;;;;;;;2.60;1.20;;;;;;;;5018609;28;45642;-69